createdAt,value
2023-03-02T00:01:31.709Z,19.27
2023-03-02T00:06:15.631Z,17.37
2023-03-02T00:11:03.384Z,19.10
2023-03-02T00:16:08.805Z,20.17
2023-03-02T00:21:09.305Z,17.83
2023-03-02T00:26:02.560Z,15.47
2023-03-02T00:31:04.960Z,14.70
2023-03-02T00:35:56.495Z,16.10
2023-03-02T00:46:35.073Z,16.83
2023-03-02T00:51:22.266Z,18.07
2023-03-02T00:56:35.347Z,17.10
2023-03-02T01:01:58.667Z,16.70
2023-03-02T01:07:01.308Z,17.13
2023-03-02T01:23:51.997Z,16.60
2023-03-02T01:36:51.673Z,17.93
2023-03-02T01:44:09.740Z,15.00
2023-03-02T02:21:10.680Z,19.33
2023-03-02T02:26:35.590Z,18.57
2023-03-02T03:37:54.892Z,19.27
2023-03-02T03:43:38.560Z,18.93
2023-03-02T03:54:30.065Z,21.37
2023-03-02T03:59:36.194Z,20.80
2023-03-02T04:04:43.490Z,19.80
2023-03-02T04:09:56.134Z,18.97
2023-03-02T04:14:48.394Z,19.43
2023-03-02T04:20:12.664Z,18.47
2023-03-02T04:25:55.719Z,18.77
2023-03-02T04:30:48.884Z,19.43
2023-03-02T04:35:35.662Z,20.10
2023-03-02T04:40:22.238Z,19.87
2023-03-02T04:45:22.910Z,20.63
2023-03-02T04:50:16.369Z,21.30
2023-03-02T04:55:03.877Z,19.37
2023-03-02T04:59:50.938Z,18.50
2023-03-02T05:04:40.701Z,21.20
2023-03-02T05:09:30.349Z,21.53
2023-03-02T05:14:16.120Z,21.50
2023-03-02T05:19:05.395Z,20.67
2023-03-02T05:23:52.328Z,18.73
2023-03-02T05:28:39.980Z,20.30
2023-03-02T05:33:28.731Z,18.83
2023-03-02T05:38:14.876Z,18.97
2023-03-02T05:43:04.999Z,19.23
2023-03-02T05:47:50.330Z,17.53
2023-03-02T05:52:39.616Z,18.13
2023-03-02T05:57:28.324Z,19.67
2023-03-02T06:02:14.405Z,19.90
2023-03-02T06:07:05.015Z,19.70
2023-03-02T06:11:51.485Z,20.87
2023-03-02T06:16:37.675Z,21.77
2023-03-02T06:21:29.179Z,19.33
2023-03-02T06:26:16.753Z,20.50
2023-03-02T06:31:03.602Z,19.93
2023-03-02T06:35:51.439Z,20.33
2023-03-02T06:40:39.169Z,19.53
2023-03-02T06:45:43.611Z,19.57
2023-03-02T06:51:05.840Z,19.67
2023-03-02T06:56:09.898Z,20.07
2023-03-02T07:01:55.893Z,21.57
2023-03-02T08:14:36.135Z,21.47
2023-03-02T08:19:54.030Z,21.63
2023-03-02T08:24:43.175Z,22.13
2023-03-02T08:29:30.394Z,20.50
2023-03-02T08:34:16.562Z,21.70
2023-03-02T08:39:15.111Z,21.10
2023-03-02T08:44:10.388Z,20.90
2023-03-02T08:48:57.023Z,21.40
2023-03-02T08:53:47.261Z,19.87
2023-03-02T08:58:33.276Z,20.20
2023-03-02T09:03:19.708Z,18.57
2023-03-02T09:08:07.642Z,19.73
2023-03-02T09:12:53.645Z,19.13
2023-03-02T09:17:44.061Z,19.00
2023-03-02T09:22:31.698Z,19.67
2023-03-02T09:27:18.800Z,19.90
2023-03-02T09:32:08.440Z,17.70
2023-03-02T09:36:55.009Z,19.30
2023-03-02T09:42:43.021Z,17.87
2023-03-02T09:47:38.341Z,17.27
2023-03-02T09:52:37.104Z,16.43
2023-03-02T09:57:43.169Z,16.43
2023-03-02T10:02:32.705Z,18.10
2023-03-02T10:07:32.871Z,16.03
2023-03-02T10:12:53.469Z,16.63
2023-03-02T10:17:59.178Z,14.57
2023-03-02T10:22:49.762Z,16.20
2023-03-02T10:28:06.449Z,17.27
2023-03-02T10:32:58.762Z,16.20
2023-03-02T10:37:42.449Z,16.10
2023-03-02T10:42:35.561Z,14.63
2023-03-02T10:47:32.631Z,13.53
2023-03-02T10:52:37.093Z,12.97
2023-03-02T10:57:45.483Z,11.07
2023-03-02T11:02:46.468Z,11.47
2023-03-02T11:07:36.949Z,11.87
2023-03-02T11:12:24.838Z,11.17
2023-03-02T11:17:45.408Z,11.97
2023-03-02T11:22:46.317Z,10.77
2023-03-02T11:27:40.622Z,10.87
2023-03-02T11:32:40.655Z,10.23
2023-03-02T11:37:42.838Z,8.63
2023-03-02T11:42:36.450Z,9.37
2023-03-02T11:47:33.936Z,9.13
2023-03-02T11:52:28.862Z,9.30
2023-03-02T11:57:40.412Z,8.40
2023-03-02T12:03:01.344Z,8.83
2023-03-02T12:08:24.164Z,8.27
2023-03-02T12:13:27.669Z,9.33
2023-03-02T12:18:44.944Z,8.13
2023-03-02T12:23:55.645Z,8.50
2023-03-02T12:28:41.481Z,8.13
2023-03-02T12:33:26.541Z,8.40
2023-03-02T12:38:32.194Z,8.37
2023-03-02T12:43:39.616Z,8.90
2023-03-02T12:48:37.154Z,8.50
2023-03-02T12:53:26.961Z,8.20
2023-03-02T12:58:18.982Z,7.13
2023-03-02T13:03:10.876Z,7.73
2023-03-02T13:08:23.537Z,8.53
2023-03-02T13:13:31.354Z,7.80
2023-03-02T13:18:20.425Z,7.63
2023-03-02T13:23:05.125Z,8.60
2023-03-02T13:27:54.179Z,9.30
2023-03-02T13:32:41.197Z,10.37
2023-03-02T13:37:43.994Z,10.43
2023-03-02T13:42:47.700Z,10.43
2023-03-02T13:47:36.810Z,10.67
2023-03-02T13:52:38.350Z,11.23
2023-03-02T13:57:47.555Z,11.37
2023-03-02T14:02:33.746Z,12.20
2023-03-02T14:07:18.167Z,11.83
2023-03-02T14:12:08.038Z,12.13
2023-03-02T14:16:59.201Z,11.63
2023-03-02T14:22:13.830Z,11.47
2023-03-02T14:27:06.177Z,11.47
2023-03-02T14:32:22.209Z,11.83
2023-03-02T14:37:25.816Z,11.93
2023-03-02T14:42:52.164Z,12.40
2023-03-02T14:47:38.892Z,11.33
2023-03-02T14:52:28.935Z,12.37
2023-03-02T15:03:54.796Z,12.37
2023-03-02T15:08:38.456Z,11.83
2023-03-02T15:13:27.858Z,11.57
2023-03-02T15:18:17.392Z,10.93
2023-03-02T15:23:16.959Z,11.20
2023-03-02T15:28:10.429Z,10.53
2023-03-02T15:32:54.766Z,9.40
2023-03-02T15:37:46.627Z,8.53
2023-03-02T15:42:31.842Z,8.20
2023-03-02T15:47:20.396Z,7.50
2023-03-02T15:52:59.546Z,8.97
2023-03-02T15:57:27.396Z,9.43
2023-03-02T16:02:16.805Z,9.63
2023-03-02T16:07:02.336Z,9.57
2023-03-02T16:12:23.692Z,10.80
2023-03-02T16:17:10.306Z,9.20
2023-03-02T16:21:57.629Z,9.43
2023-03-02T16:26:46.377Z,10.17
2023-03-02T16:31:38.011Z,9.43
2023-03-02T16:36:22.409Z,8.97
2023-03-02T16:41:16.655Z,9.30
2023-03-02T16:46:00.819Z,9.97
2023-03-02T16:50:47.754Z,10.40
2023-03-02T16:55:33.166Z,10.27
2023-03-02T17:00:25.381Z,10.20
2023-03-02T17:05:11.335Z,9.53
2023-03-02T17:09:57.850Z,11.77
2023-03-02T17:14:50.589Z,11.53
2023-03-02T17:19:35.598Z,12.37
2023-03-02T17:24:21.042Z,11.27
2023-03-02T17:29:13.434Z,11.53
2023-03-02T17:33:58.065Z,10.97
2023-03-02T17:38:52.130Z,11.03
2023-03-02T17:43:36.758Z,13.23
2023-03-02T17:48:22.084Z,11.93
2023-03-02T17:53:11.405Z,13.03
2023-03-02T17:57:58.642Z,12.50
2023-03-02T18:02:47.824Z,13.73
2023-03-02T18:07:33.255Z,14.30
2023-03-02T18:12:22.595Z,15.37
2023-03-02T18:17:10.496Z,14.57
2023-03-02T18:21:59.738Z,13.87
2023-03-02T18:26:46.233Z,14.60
2023-03-02T18:31:34.838Z,13.40
2023-03-02T18:36:21.921Z,14.80
2023-03-02T18:41:13.372Z,13.93
2023-03-02T18:45:58.696Z,12.93
2023-03-02T18:50:46.917Z,13.10
2023-03-02T18:55:34.131Z,14.17
2023-03-02T19:00:27.806Z,13.60
2023-03-02T19:05:12.104Z,14.67
2023-03-02T19:09:58.559Z,13.87
2023-03-02T19:14:45.961Z,16.90
2023-03-02T19:19:35.515Z,15.13
2023-03-02T19:24:20.612Z,14.43
2023-03-02T19:29:09.837Z,15.80
2023-03-02T19:34:02.079Z,15.73
2023-03-02T19:38:45.444Z,15.33
2023-03-02T19:43:34.801Z,17.07
2023-03-02T19:48:22.187Z,16.53
2023-03-02T19:53:10.744Z,17.87
2023-03-02T19:58:02.083Z,16.87
2023-03-02T20:02:45.601Z,17.87
2023-03-02T20:07:34.837Z,18.43
2023-03-02T20:12:22.991Z,18.63
2023-03-02T20:17:11.337Z,17.77
2023-03-02T20:21:57.927Z,19.47
2023-03-02T20:26:47.669Z,20.43
2023-03-02T20:31:35.903Z,20.33
2023-03-02T20:36:23.237Z,20.13
2023-03-02T20:41:12.561Z,19.90
2023-03-02T20:45:58.472Z,20.83
2023-03-02T20:50:45.726Z,20.50
2023-03-02T20:55:32.903Z,21.87
2023-03-02T21:00:22.356Z,21.50
2023-03-02T21:05:12.380Z,23.30
2023-03-02T21:10:00.317Z,22.83
2023-03-02T21:14:46.347Z,24.50
2023-03-02T21:19:35.692Z,22.60
2023-03-02T21:24:22.271Z,22.43
2023-03-02T21:29:11.889Z,26.10
2023-03-02T21:33:58.156Z,26.60
2023-03-02T21:38:45.278Z,23.63
2023-03-02T21:43:34.883Z,25.67
2023-03-02T21:48:23.134Z,23.50
2023-03-02T21:53:12.689Z,26.43
2023-03-02T21:58:02.868Z,24.53
2023-03-02T22:02:50.219Z,25.83
2023-03-02T22:07:36.219Z,25.30
2023-03-02T22:12:23.650Z,27.93
2023-03-02T22:17:27.436Z,26.63
2023-03-02T22:22:19.120Z,26.00
2023-03-02T22:27:24.555Z,25.90
2023-03-02T22:32:27.398Z,27.63
2023-03-02T22:37:24.994Z,29.70
2023-03-02T22:42:18.081Z,29.57
2023-03-02T22:47:01.683Z,30.53
2023-03-02T22:51:51.467Z,30.07
2023-03-02T22:56:42.514Z,28.67
2023-03-02T23:01:42.710Z,30.73
2023-03-02T23:06:34.809Z,28.83
2023-03-02T23:11:22.529Z,30.37
2023-03-02T23:16:35.167Z,31.47
2023-03-02T23:21:40.851Z,30.97
2023-03-02T23:26:34.632Z,32.13
2023-03-02T23:31:21.786Z,31.43
2023-03-02T23:36:05.767Z,32.73
2023-03-02T23:40:59.771Z,36.37
2023-03-02T23:45:43.393Z,39.37
2023-03-02T23:50:33.236Z,32.90
2023-03-02T23:55:19.967Z,31.10
